To NAV CANADA Home Page Login to a new session Search on AWWS site Feedback and Comments Disclaimer Vers la page française équivalente Tips FAQ What's new on the site To the Forecasts and Observations / NOTAM section To "File a Flight Plan" website Publications and other links Update of the User's profile FIC Telephone Numbers My Weather Data Folder Route Weather Data Regional Weather Data Local Weather Data To the Forecasts and Observations / NOTAM section
Request Generated 05/25/2017 at 01:11:41 UTC . Weather information available at that time is displayed.

METAR/TAF

GREENWOOD/NS    

METAR CYZX 250100Z 00000KT 15SM BKN180 BKN250 16/12 A2988 RMK AC5CI2 WNDY HILL UNAVBL SLP119=
METAR CYZX 250000Z 00000KT 15SM FEW040 BKN180 BKN250 18/12 A2987 RMK SC1AC5CI2 WNDY HILL UNAVBL SLP116=
METAR CYZX 242300Z 33002KT 15SM FEW040 BKN180 BKN250 19/11 A2984 RMK SC1AC5CI2 WNDY HILL UNAVBL SLP107=

TAF CYZX 242330Z 2500/2524 VRB03KT P6SM SCT040 BKN180 BKN250
FM250200 VRB03KT P6SM SCT040 SCT150
FM250500 VRB03KT P6SM SCT006 BKN040 PROB30 2505/2508 3SM BR
BKN006
FM250800 VRB03KT 6SM BR SCT003 TEMPO 2508/2511 1SM BR BKN003
PROB30 2508/2511 1/2SM FG OVC003
FM251100 VRB03KT 6SM BR SCT003 BKN015
FM251300 07008KT P6SM SCT030 BKN270
FM251800 07010KT P6SM SCT040 OVC210
FM252100 09010G20KT P6SM SCT020 OVC150
FM252300 09012G22KT 6SM -RA BR BKN015 OVC040
RMK NXT FCST BY 250600Z=
Your time UTC time
Weather data provided by Environment Canada and NAV CANADA